KMSY/MSY METAR and TAF weather

Enter ICAO airport designator
Station Type Date Time Source
KMSY METAR 2022/11/30 17:53 UTC NOAA

KMSY 301753Z 01015G22KT 10SM BKN250 19/07 A3020 RMK AO2 SLP228 T01940067 10228 20194 50028


Station Type Date Time Source
KMSY Decoded METAR 2022/11/30 17:53 UTC NOAA

NEW ORLEANS INTERNATIONAL AIRPORT, LA, United States (KMSY) 30-00N 90-15W 5M
Nov 30, 2022 - 12:53 PM EST / 2022.11.30 1753 UTC
Wind: from the N (010 degrees) at 17 MPH (15 KT) gusting to 25 MPH (22 KT):0
Visibility: 10 mile(s):0
Sky conditions: mostly cloudy
Temperature: 66.9 F (19.4 C)
Dew Point: 44.1 F (6.7 C)
Relative Humidity: 43%
Pressure (altimeter): 30.2 in. Hg (1022 hPa)
Pressure tendency: 0.08 inches (2.8 hPa) higher than three hours ago
ob: KMSY 301753Z 01015G22KT 10SM BKN250 19/07 A3020 RMK AO2 SLP228 T01940067 10228 20194 50028
cycle: 18

Station Type Date Time Source
KMSY TAF 2022/11/30 18:22 UTC NOAA

TAF KMSY 301720Z 3018/0124 01014G24KT P6SM BKN250
FM010700 05012KT P6SM SKC

Example: see airport list